createdAt,value
2023-03-15T00:01:27.224Z,1.78
2023-03-15T00:03:58.340Z,1.74
2023-03-15T00:06:29.364Z,1.71
2023-03-15T00:09:02.218Z,1.68
2023-03-15T00:11:33.561Z,1.68
2023-03-15T00:14:05.475Z,1.68
2023-03-15T00:16:36.555Z,1.68
2023-03-15T00:19:07.584Z,1.69
2023-03-15T00:21:39.958Z,1.69
2023-03-15T00:24:12.245Z,1.68
2023-03-15T00:26:43.381Z,1.69
2023-03-15T00:29:14.349Z,1.70
2023-03-15T00:31:45.332Z,1.70
2023-03-15T00:34:16.312Z,1.67
2023-03-15T00:36:47.315Z,1.67
2023-03-15T00:39:18.682Z,1.66
2023-03-15T00:41:49.890Z,1.66
2023-03-15T00:44:19.465Z,1.64
2023-03-15T00:46:50.565Z,1.61
2023-03-15T00:49:21.527Z,1.58
2023-03-15T00:51:55.597Z,1.56
2023-03-15T00:54:26.635Z,1.54
2023-03-15T00:56:57.482Z,1.50
2023-03-15T00:59:29.151Z,1.47
2023-03-15T01:02:00.475Z,1.46
2023-03-15T01:04:32.012Z,1.44
2023-03-15T01:07:02.973Z,1.39
2023-03-15T01:09:34.707Z,1.37
2023-03-15T01:12:06.078Z,1.35
2023-03-15T01:14:37.786Z,1.34
2023-03-15T01:17:08.746Z,1.32
2023-03-15T01:19:39.850Z,1.29
2023-03-15T01:22:10.883Z,1.28
2023-03-15T01:24:42.025Z,1.26
2023-03-15T01:27:16.007Z,1.24
2023-03-15T01:29:47.212Z,1.21
2023-03-15T01:32:18.186Z,1.18
2023-03-15T01:34:49.516Z,1.18
2023-03-15T01:37:19.031Z,1.14
2023-03-15T01:39:51.416Z,1.14
2023-03-15T01:42:22.889Z,1.13
2023-03-15T01:45:01.089Z,1.12
2023-03-15T01:47:33.507Z,1.10
2023-03-15T01:50:08.194Z,1.09
2023-03-15T01:52:42.947Z,1.07
2023-03-15T01:55:17.785Z,1.06
2023-03-15T01:57:56.078Z,1.03
2023-03-15T02:00:27.954Z,1.01
2023-03-15T02:03:03.989Z,1.00
2023-03-15T02:05:38.673Z,1.02
2023-03-15T02:08:11.704Z,1.01
2023-03-15T02:10:46.333Z,1.02
2023-03-15T02:13:22.915Z,1.03
2023-03-15T02:15:54.851Z,1.02
2023-03-15T02:18:26.119Z,1.05
2023-03-15T02:21:05.960Z,1.04
2023-03-15T02:23:37.329Z,1.04
2023-03-15T02:26:18.589Z,1.03
2023-03-15T02:28:50.704Z,1.02
2023-03-15T02:31:22.796Z,1.01
2023-03-15T02:33:56.612Z,1.01
2023-03-15T02:36:32.076Z,1.00
2023-03-15T02:39:03.733Z,1.00
2023-03-15T02:41:37.824Z,0.99
2023-03-15T02:44:13.187Z,0.96
2023-03-15T02:46:47.603Z,0.93
2023-03-15T02:49:19.935Z,0.89
2023-03-15T02:51:51.138Z,0.88
2023-03-15T02:54:21.986Z,0.83
2023-03-15T02:56:53.424Z,0.77
2023-03-15T02:59:24.342Z,0.73
2023-03-15T03:01:55.737Z,0.65
2023-03-15T03:04:26.927Z,0.62
2023-03-15T03:06:58.196Z,0.53
2023-03-15T03:09:29.342Z,0.51
2023-03-15T03:12:00.658Z,0.46
2023-03-15T03:14:31.802Z,0.40
2023-03-15T03:17:03.049Z,0.34
2023-03-15T03:19:34.064Z,0.26
2023-03-15T03:22:05.472Z,0.17
2023-03-15T03:24:36.436Z,0.08
2023-03-15T03:27:07.773Z,-0.04
2023-03-15T03:29:38.873Z,-0.12
2023-03-15T03:32:11.076Z,-0.22
2023-03-15T03:34:42.161Z,-0.36
2023-03-15T03:37:13.370Z,-0.47
2023-03-15T03:39:44.385Z,-0.55
2023-03-15T03:42:15.883Z,-0.57
2023-03-15T03:44:47.144Z,-0.58
2023-03-15T03:47:18.241Z,-0.59
2023-03-15T03:49:49.337Z,-0.60
2023-03-15T03:52:20.987Z,-0.60
2023-03-15T03:54:52.063Z,-0.59
2023-03-15T03:57:23.043Z,-0.58
2023-03-15T03:59:54.035Z,-0.61
2023-03-15T04:02:25.115Z,-0.69
2023-03-15T04:04:56.355Z,-0.73
2023-03-15T04:07:27.625Z,-0.74
2023-03-15T04:09:58.582Z,-0.74
2023-03-15T04:12:29.844Z,-0.72
2023-03-15T04:15:00.926Z,-0.71
2023-03-15T04:17:32.926Z,-0.74
2023-03-15T04:20:07.768Z,-0.74
2023-03-15T04:22:38.672Z,-0.80
2023-03-15T04:25:11.314Z,-0.83
2023-03-15T04:27:42.307Z,-0.83
2023-03-15T04:30:15.003Z,-0.83
2023-03-15T04:32:46.164Z,-0.83
2023-03-15T04:35:17.388Z,-0.82
2023-03-15T04:37:47.166Z,-0.82
2023-03-15T04:40:18.321Z,-0.82
2023-03-15T04:42:49.250Z,-0.82
2023-03-15T04:45:20.383Z,-0.82
2023-03-15T04:47:51.949Z,-0.82
2023-03-15T04:50:21.882Z,-0.85
2023-03-15T04:52:52.913Z,-0.88
2023-03-15T04:55:24.258Z,-0.87
2023-03-15T04:57:55.479Z,-0.85
2023-03-15T05:00:26.965Z,-0.82
2023-03-15T05:02:57.950Z,-0.79
2023-03-15T05:05:29.505Z,-0.76
2023-03-15T05:07:58.839Z,-0.74
2023-03-15T05:10:30.412Z,-0.72
2023-03-15T05:12:59.814Z,-0.69
2023-03-15T05:15:32.431Z,-0.68
2023-03-15T05:18:04.354Z,-0.64
2023-03-15T05:20:35.504Z,-0.60
2023-03-15T05:23:06.407Z,-0.58
2023-03-15T05:25:38.717Z,-0.55
2023-03-15T05:28:09.847Z,-0.55
2023-03-15T05:30:41.425Z,-0.53
2023-03-15T05:33:12.636Z,-0.52
2023-03-15T05:35:44.432Z,-0.52
2023-03-15T05:38:15.997Z,-0.50
2023-03-15T05:40:48.118Z,-0.48
2023-03-15T05:43:19.143Z,-0.45
2023-03-15T05:45:50.554Z,-0.42
2023-03-15T05:48:20.025Z,-0.38
2023-03-15T05:50:51.000Z,-0.37
2023-03-15T05:53:22.225Z,-0.33
2023-03-15T05:55:53.153Z,-0.32
2023-03-15T05:58:24.117Z,-0.31
2023-03-15T06:00:55.336Z,-0.28
2023-03-15T06:03:26.759Z,-0.26
2023-03-15T06:05:58.031Z,-0.23
2023-03-15T06:08:29.281Z,-0.20
2023-03-15T06:11:00.356Z,-0.20
2023-03-15T06:13:31.567Z,-0.21
2023-03-15T06:16:02.699Z,-0.19
2023-03-15T06:18:33.824Z,-0.17
2023-03-15T06:21:04.807Z,-0.14
2023-03-15T06:23:36.244Z,-0.10
2023-03-15T06:26:07.675Z,-0.06
2023-03-15T06:28:39.179Z,-0.03
2023-03-15T06:31:12.158Z,0.01
2023-03-15T06:33:43.500Z,0.04
2023-03-15T06:36:14.328Z,0.09
2023-03-15T06:38:45.293Z,0.14
2023-03-15T06:41:16.507Z,0.19
2023-03-15T06:43:47.482Z,0.25
2023-03-15T06:46:18.956Z,0.24
2023-03-15T06:48:50.149Z,0.28
2023-03-15T06:51:21.195Z,0.28
2023-03-15T06:53:52.177Z,0.30
2023-03-15T06:56:23.445Z,0.32
2023-03-15T06:58:54.384Z,0.35
2023-03-15T07:01:25.599Z,0.37
2023-03-15T07:03:56.703Z,0.41
2023-03-15T07:06:28.341Z,0.45
2023-03-15T07:08:59.668Z,0.44
2023-03-15T07:11:29.336Z,0.48
2023-03-15T07:14:00.450Z,0.49
2023-03-15T07:16:31.540Z,0.52
2023-03-15T07:19:02.758Z,0.57
2023-03-15T07:21:33.745Z,0.61
2023-03-15T07:24:05.618Z,0.67
2023-03-15T07:26:35.043Z,0.73
2023-03-15T07:29:06.397Z,0.78
2023-03-15T07:31:37.498Z,0.86
2023-03-15T07:34:08.544Z,0.96
2023-03-15T07:36:39.705Z,1.05
2023-03-15T07:39:10.655Z,1.13
2023-03-15T07:41:41.724Z,1.22
2023-03-15T07:44:12.865Z,1.28
2023-03-15T07:46:43.805Z,1.35
2023-03-15T07:49:14.850Z,1.37
2023-03-15T07:51:46.023Z,1.46
2023-03-15T07:54:17.059Z,1.53
2023-03-15T07:56:48.213Z,1.60
2023-03-15T07:59:19.330Z,1.70
2023-03-15T08:01:50.514Z,1.82
2023-03-15T08:04:21.913Z,1.94
2023-03-15T08:06:52.894Z,2.03
2023-03-15T08:09:23.998Z,2.09
2023-03-15T08:11:58.182Z,2.19
2023-03-15T08:14:32.600Z,2.28
2023-03-15T08:17:03.573Z,2.39
2023-03-15T08:19:34.721Z,2.45
2023-03-15T08:22:06.664Z,2.52
2023-03-15T08:24:38.234Z,2.53
2023-03-15T08:27:10.100Z,2.60
2023-03-15T08:29:41.301Z,2.63
2023-03-15T08:32:13.172Z,2.64
2023-03-15T08:34:44.107Z,2.69
2023-03-15T08:37:15.347Z,2.70
2023-03-15T08:39:46.332Z,2.74
2023-03-15T08:42:18.122Z,2.74
2023-03-15T08:44:49.082Z,2.72
2023-03-15T08:47:20.068Z,2.76
2023-03-15T08:49:53.189Z,2.77
2023-03-15T08:52:24.321Z,2.76
2023-03-15T08:54:53.701Z,2.76
2023-03-15T08:57:27.391Z,2.71
2023-03-15T08:59:58.530Z,2.67
2023-03-15T09:02:30.168Z,2.66
2023-03-15T09:05:01.247Z,2.67
2023-03-15T09:07:33.414Z,2.70
2023-03-15T09:10:05.677Z,2.73
2023-03-15T09:12:36.831Z,2.72
2023-03-15T09:15:08.935Z,2.73
2023-03-15T09:17:40.298Z,2.76
2023-03-15T09:20:16.610Z,2.81
2023-03-15T09:22:53.589Z,2.82
2023-03-15T09:25:28.005Z,2.84
2023-03-15T09:27:59.182Z,2.89
2023-03-15T09:30:30.150Z,2.96
2023-03-15T09:33:01.378Z,3.03
2023-03-15T09:35:33.664Z,3.11
2023-03-15T09:38:05.082Z,3.23
2023-03-15T09:40:40.713Z,3.34
2023-03-15T09:43:37.779Z,3.39
2023-03-15T09:46:25.545Z,3.38
2023-03-15T09:49:01.212Z,3.30
2023-03-15T09:51:37.785Z,3.33
2023-03-15T09:54:14.093Z,3.42
2023-03-15T09:56:51.611Z,3.50
2023-03-15T09:59:23.078Z,3.56
2023-03-15T10:01:57.174Z,3.62
2023-03-15T10:04:31.925Z,3.66
2023-03-15T10:07:05.063Z,3.66
2023-03-15T10:09:36.433Z,3.68
2023-03-15T10:12:11.484Z,3.76
2023-03-15T10:15:17.612Z,3.87
2023-03-15T10:18:02.687Z,3.93
2023-03-15T10:20:38.278Z,3.95
2023-03-15T10:23:18.076Z,4.01
2023-03-15T10:25:51.227Z,4.04
2023-03-15T10:28:30.288Z,4.09
2023-03-15T10:31:09.663Z,4.17
2023-03-15T10:33:42.387Z,4.25
2023-03-15T10:36:18.660Z,4.34
2023-03-15T10:38:52.330Z,4.45
2023-03-15T10:41:40.230Z,4.60
2023-03-15T10:44:15.267Z,4.68
2023-03-15T10:47:07.333Z,4.69
2023-03-15T10:49:42.899Z,4.66
2023-03-15T10:55:18.216Z,4.79
2023-03-15T10:57:56.984Z,4.82
2023-03-15T11:00:33.733Z,4.92
2023-03-15T11:03:07.344Z,4.94
2023-03-15T11:05:44.261Z,4.91
2023-03-15T11:08:17.444Z,4.91
2023-03-15T11:10:55.634Z,5.02
2023-03-15T11:13:28.021Z,5.02
2023-03-15T11:16:04.466Z,5.04
2023-03-15T11:18:43.879Z,5.03
2023-03-15T11:21:17.695Z,4.96
2023-03-15T11:23:51.282Z,4.91
2023-03-15T11:26:33.158Z,4.95
2023-03-15T11:29:09.139Z,4.99
2023-03-15T11:31:40.668Z,5.04
2023-03-15T11:34:19.250Z,5.11
2023-03-15T11:37:07.179Z,5.09
2023-03-15T11:39:45.263Z,5.06
2023-03-15T11:42:25.045Z,5.10
2023-03-15T11:45:02.579Z,5.16
2023-03-15T11:47:36.121Z,5.19
2023-03-15T11:50:09.071Z,5.18
2023-03-15T11:52:41.347Z,5.16
2023-03-15T11:55:22.115Z,5.07
2023-03-15T11:57:53.756Z,4.99
2023-03-15T12:00:52.055Z,4.97
2023-03-15T12:03:37.940Z,5.01
2023-03-15T12:06:26.711Z,5.04
2023-03-15T12:08:58.124Z,5.14
2023-03-15T12:11:45.137Z,5.22
2023-03-15T12:14:31.783Z,5.30
2023-03-15T12:17:42.612Z,5.32
2023-03-15T12:20:24.794Z,5.36
2023-03-15T12:23:08.896Z,5.42
2023-03-15T12:25:54.831Z,5.50
2023-03-15T12:28:31.676Z,5.56
2023-03-15T12:31:05.374Z,5.58
2023-03-15T12:33:48.145Z,5.55
2023-03-15T12:36:36.534Z,5.50
2023-03-15T12:39:36.985Z,5.48
2023-03-15T12:42:08.722Z,5.40
2023-03-15T12:44:44.620Z,5.31
2023-03-15T12:47:15.566Z,5.20
2023-03-15T12:49:47.620Z,5.20
2023-03-15T12:52:38.511Z,5.26
2023-03-15T12:55:17.201Z,5.32
2023-03-15T12:57:54.632Z,5.36
2023-03-15T13:00:28.305Z,5.41
2023-03-15T13:03:06.485Z,5.52
2023-03-15T13:06:02.825Z,5.62
2023-03-15T13:08:45.051Z,5.68
2023-03-15T13:11:22.371Z,5.65
2023-03-15T13:14:32.170Z,5.60
2023-03-15T13:17:17.481Z,5.55
2023-03-15T13:19:54.172Z,5.50
2023-03-15T13:22:30.032Z,5.43
2023-03-15T13:25:09.868Z,5.37
2023-03-15T13:27:51.166Z,5.32
2023-03-15T13:30:39.121Z,5.21
2023-03-15T13:33:19.746Z,5.16
2023-03-15T13:35:57.187Z,5.12
2023-03-15T13:38:32.112Z,5.16
2023-03-15T13:41:05.277Z,5.17
2023-03-15T13:43:38.597Z,5.24
2023-03-15T13:46:09.851Z,5.30
2023-03-15T13:48:44.523Z,5.30
2023-03-15T13:51:22.760Z,5.29
2023-03-15T13:53:56.410Z,5.26
2023-03-15T13:56:46.975Z,5.15
2023-03-15T13:59:20.701Z,4.97
2023-03-15T14:01:54.467Z,4.83
2023-03-15T14:04:27.270Z,4.57
2023-03-15T14:07:19.301Z,4.28
2023-03-15T14:09:50.523Z,4.11
2023-03-15T14:12:23.849Z,4.04
2023-03-15T14:14:55.910Z,3.95
2023-03-15T14:17:31.537Z,3.92
2023-03-15T14:20:12.132Z,3.96
2023-03-15T14:22:45.496Z,4.09
2023-03-15T14:25:24.924Z,4.20
2023-03-15T14:27:56.390Z,4.28
2023-03-15T14:30:28.350Z,4.28
2023-03-15T14:33:04.684Z,4.41
2023-03-15T14:35:44.752Z,4.53
2023-03-15T14:38:23.015Z,4.65
2023-03-15T14:40:55.603Z,4.68
2023-03-15T14:43:27.452Z,4.70
2023-03-15T14:45:58.702Z,4.68
2023-03-15T14:48:30.222Z,4.59
2023-03-15T14:51:01.420Z,4.44
2023-03-15T14:53:39.515Z,4.29
2023-03-15T14:56:14.240Z,3.92
2023-03-15T14:58:45.335Z,3.51
2023-03-15T15:01:18.771Z,3.43
2023-03-15T15:03:52.557Z,3.87
2023-03-15T15:06:23.777Z,4.46
2023-03-15T15:08:58.846Z,4.97
2023-03-15T15:11:29.998Z,5.36
2023-03-15T15:14:01.017Z,5.60
2023-03-15T15:16:32.101Z,5.69
2023-03-15T15:19:04.859Z,5.87
2023-03-15T15:21:36.497Z,6.22
2023-03-15T15:24:16.159Z,6.68
2023-03-15T15:26:48.356Z,7.04
2023-03-15T15:29:19.767Z,7.28
2023-03-15T15:31:50.872Z,7.39
2023-03-15T15:34:22.038Z,7.47
2023-03-15T15:36:52.082Z,7.69
2023-03-15T15:39:27.611Z,7.84
2023-03-15T15:41:58.873Z,7.98
2023-03-15T15:44:29.730Z,8.11
2023-03-15T15:47:01.187Z,8.02
2023-03-15T15:49:32.492Z,7.57
2023-03-15T15:52:05.491Z,7.60
2023-03-15T15:54:36.743Z,7.31
2023-03-15T15:57:11.761Z,7.43
2023-03-15T15:59:42.769Z,7.52
2023-03-15T16:02:14.574Z,7.56
2023-03-15T16:04:45.671Z,7.50
2023-03-15T16:07:15.882Z,7.22
2023-03-15T16:09:49.096Z,6.72
2023-03-15T16:12:21.253Z,6.34
2023-03-15T16:14:52.200Z,5.98
2023-03-15T16:17:22.736Z,5.62
2023-03-15T16:19:54.504Z,5.30
2023-03-15T16:22:27.164Z,5.06
2023-03-15T16:25:01.540Z,4.76
2023-03-15T16:27:33.882Z,4.49
2023-03-15T16:30:04.667Z,4.30
2023-03-15T16:32:44.118Z,4.14
2023-03-15T16:35:16.709Z,4.01
2023-03-15T16:37:49.019Z,3.88
2023-03-15T16:40:26.990Z,3.75
2023-03-15T16:42:58.514Z,3.62
2023-03-15T16:45:30.005Z,3.45
2023-03-15T16:48:00.974Z,3.29
2023-03-15T16:50:33.752Z,3.11
2023-03-15T16:53:08.352Z,2.93
2023-03-15T16:55:39.766Z,2.77
2023-03-15T16:58:19.099Z,2.64
2023-03-15T17:00:50.145Z,2.51
2023-03-15T17:03:21.328Z,2.37
2023-03-15T17:05:52.658Z,2.24
2023-03-15T17:08:25.380Z,2.09
2023-03-15T17:10:56.387Z,1.94
2023-03-15T17:13:31.893Z,1.81
2023-03-15T17:16:03.030Z,1.68
2023-03-15T17:18:34.897Z,1.56
2023-03-15T17:21:06.946Z,1.44
2023-03-15T17:23:38.030Z,1.31
2023-03-15T17:26:13.611Z,1.22
2023-03-15T17:28:46.812Z,1.08
2023-03-15T17:31:25.060Z,0.95
2023-03-15T17:33:56.888Z,0.85
2023-03-15T17:36:34.080Z,0.75
2023-03-15T17:39:06.043Z,0.66
2023-03-15T17:41:39.514Z,0.60
2023-03-15T17:44:13.059Z,0.54
2023-03-15T17:46:44.274Z,0.47
2023-03-15T17:49:16.319Z,0.41
2023-03-15T17:51:47.633Z,0.36
2023-03-15T17:54:18.475Z,0.28
2023-03-15T17:56:49.585Z,0.14
2023-03-15T17:59:20.704Z,0.02
2023-03-15T18:01:52.072Z,-0.03
2023-03-15T18:04:23.850Z,-0.09
2023-03-15T18:06:55.430Z,-0.14
2023-03-15T18:09:27.080Z,-0.18
2023-03-15T18:11:57.966Z,-0.22
2023-03-15T18:14:31.133Z,-0.27
2023-03-15T18:17:02.125Z,-0.30
2023-03-15T18:19:33.299Z,-0.34
2023-03-15T18:22:04.717Z,-0.38
2023-03-15T18:24:35.924Z,-0.41
2023-03-15T18:27:07.004Z,-0.44
2023-03-15T18:29:37.962Z,-0.46
2023-03-15T18:32:11.119Z,-0.48
2023-03-15T18:34:42.350Z,-0.51
2023-03-15T18:37:12.077Z,-0.56
2023-03-15T18:39:43.292Z,-0.63
2023-03-15T18:42:14.516Z,-0.68
2023-03-15T18:44:45.190Z,-0.74
2023-03-15T18:47:16.248Z,-0.81
2023-03-15T18:49:49.555Z,-0.86
2023-03-15T18:52:22.944Z,-0.90
2023-03-15T18:54:54.295Z,-0.93
2023-03-15T18:57:25.336Z,-0.96
2023-03-15T18:59:56.301Z,-0.97
2023-03-15T19:02:27.530Z,-0.98
2023-03-15T19:05:01.187Z,-0.97
2023-03-15T19:07:32.242Z,-0.97
2023-03-15T19:10:03.613Z,-0.97
2023-03-15T19:12:33.222Z,-0.96
2023-03-15T19:15:04.969Z,-0.98
2023-03-15T19:17:36.219Z,-0.97
2023-03-15T19:20:12.003Z,-0.97
2023-03-15T19:22:45.094Z,-0.97
2023-03-15T19:25:16.640Z,-1.00
2023-03-15T19:27:47.776Z,-1.08
2023-03-15T19:30:22.206Z,-1.16
2023-03-15T19:32:53.576Z,-1.20
2023-03-15T19:35:24.780Z,-1.21
2023-03-15T19:37:57.254Z,-1.22
2023-03-15T19:40:28.615Z,-1.24
2023-03-15T19:42:59.781Z,-1.25
2023-03-15T19:45:31.017Z,-1.29
2023-03-15T19:48:02.035Z,-1.33
2023-03-15T19:50:34.039Z,-1.37
2023-03-15T19:53:05.247Z,-1.43
2023-03-15T19:55:37.416Z,-1.51
2023-03-15T19:58:08.428Z,-1.62
2023-03-15T20:00:42.166Z,-1.61
2023-03-15T20:03:13.510Z,-1.64
2023-03-15T20:05:44.677Z,-1.66
2023-03-15T20:08:15.798Z,-1.70
2023-03-15T20:10:48.581Z,-1.72
2023-03-15T20:13:19.564Z,-1.78
2023-03-15T20:15:50.681Z,-1.81
2023-03-15T20:18:21.853Z,-1.85
2023-03-15T20:20:54.293Z,-1.89
2023-03-15T20:23:25.382Z,-1.93
2023-03-15T20:26:06.730Z,-1.96
2023-03-15T20:28:38.330Z,-2.00
2023-03-15T20:31:11.323Z,-2.03
2023-03-15T20:33:43.328Z,-2.07
2023-03-15T20:36:14.757Z,-2.12
2023-03-15T20:38:45.978Z,-2.15
2023-03-15T20:41:18.280Z,-2.18
2023-03-15T20:43:49.541Z,-2.19
2023-03-15T20:46:22.438Z,-2.19
2023-03-15T20:48:53.646Z,-2.18
2023-03-15T20:51:24.572Z,-2.18
2023-03-15T20:53:55.647Z,-2.17
2023-03-15T20:56:26.669Z,-2.17
2023-03-15T20:58:57.723Z,-2.16
2023-03-15T21:01:28.634Z,-2.16
2023-03-15T21:04:00.250Z,-2.16
2023-03-15T21:06:31.319Z,-2.16
2023-03-15T21:09:02.402Z,-2.16
2023-03-15T21:11:33.454Z,-2.19
2023-03-15T21:14:04.877Z,-2.22
2023-03-15T21:16:36.657Z,-2.30
2023-03-15T21:19:06.143Z,-2.37
2023-03-15T21:21:37.422Z,-2.41
2023-03-15T21:24:09.277Z,-2.42
2023-03-15T21:26:43.951Z,-2.44
2023-03-15T21:29:15.061Z,-2.46
2023-03-15T21:31:46.056Z,-2.46
2023-03-15T21:34:17.327Z,-2.46
2023-03-15T21:36:48.875Z,-2.46
2023-03-15T21:39:20.004Z,-2.49
2023-03-15T21:41:52.700Z,-2.53
2023-03-15T21:44:24.152Z,-2.55
2023-03-15T21:46:55.343Z,-2.58
2023-03-15T21:49:26.511Z,-2.59
2023-03-15T21:51:57.558Z,-2.61
2023-03-15T21:54:29.403Z,-2.62
2023-03-15T21:57:00.398Z,-2.63
2023-03-15T21:59:31.818Z,-2.64
2023-03-15T22:02:02.850Z,-2.63
2023-03-15T22:04:34.256Z,-2.62
2023-03-15T22:07:05.516Z,-2.61
2023-03-15T22:09:38.087Z,-2.60
2023-03-15T22:12:10.593Z,-2.61
2023-03-15T22:14:42.158Z,-2.62
2023-03-15T22:17:14.121Z,-2.62
2023-03-15T22:19:45.239Z,-2.63
2023-03-15T22:22:16.293Z,-2.66
2023-03-15T22:24:47.580Z,-2.67
2023-03-15T22:27:18.550Z,-2.68
2023-03-15T22:29:49.796Z,-2.70
2023-03-15T22:32:20.921Z,-2.72
2023-03-15T22:34:52.198Z,-2.74
2023-03-15T22:37:23.997Z,-2.76
2023-03-15T22:39:55.279Z,-2.81
2023-03-15T22:42:26.348Z,-2.84
2023-03-15T22:44:57.789Z,-2.86
2023-03-15T22:47:28.896Z,-2.86
2023-03-15T22:50:00.085Z,-2.89
2023-03-15T22:52:31.132Z,-2.90
2023-03-15T22:55:02.179Z,-2.91
2023-03-15T22:57:33.837Z,-2.92
2023-03-15T23:00:07.516Z,-2.94
2023-03-15T23:02:42.535Z,-2.95
2023-03-15T23:05:12.874Z,-2.98
2023-03-15T23:07:43.903Z,-3.01
2023-03-15T23:10:15.463Z,-3.07
2023-03-15T23:12:50.045Z,-3.13
2023-03-15T23:15:21.227Z,-3.15
2023-03-15T23:17:53.951Z,-3.17
2023-03-15T23:20:26.417Z,-3.20
2023-03-15T23:22:57.583Z,-3.22
2023-03-15T23:25:29.493Z,-3.23
2023-03-15T23:28:00.538Z,-3.26
2023-03-15T23:30:35.136Z,-3.30
2023-03-15T23:33:07.993Z,-3.35
2023-03-15T23:35:39.317Z,-3.42
2023-03-15T23:38:10.470Z,-3.47
2023-03-15T23:40:41.570Z,-3.50
2023-03-15T23:43:12.727Z,-3.54
2023-03-15T23:45:43.768Z,-3.57
2023-03-15T23:48:14.912Z,-3.60
2023-03-15T23:50:46.047Z,-3.62
2023-03-15T23:53:17.437Z,-3.66
2023-03-15T23:55:47.451Z,-3.71
2023-03-15T23:58:18.391Z,-3.74
